Time;durP1;ratioP1;P1;durP2;ratioP2;P2;SDS_P1;SDS_P2;PMS_P1;PMS_P2;Temp;Humidity;BMP_temperature;BMP_pressure;BME280_temperature;BME280_humidity;BME280_pressure;Samples;Min_cycle;Max_cycle;Signal;HPM_P1;HPM_P2
2023/04/01 05:58:12;;;;;;;2.30;0.95;;;;;;;;;;10586931;28;20054;-84
2023/04/01 06:03:13;;;;;;;1.23;0.90;;;;;;;;;;10592160;28;20505;-83
2023/04/01 06:08:18;;;;;;;0.90;0.70;;;;;;;;;;10611072;28;20036;-82
2023/04/01 06:13:38;;;;;;;4.70;2.30;;;;;;;;;;10613177;28;20030;-82
2023/04/01 06:18:55;;;;;;;1.50;1.20;;;;;;;;;;10612835;28;20030;-83
2023/04/01 06:24:04;;;;;;;2.45;1.40;;;;;;;;;;10614227;28;20027;-83
2023/04/01 06:29:23;;;;;;;1.50;1.23;;;;;;;;;;10612349;28;20027;-83
2023/04/01 06:34:28;;;;;;;1.65;1.00;;;;;;;;;;10606158;28;20036;-82
2023/04/01 06:39:35;;;;;;;4.07;1.90;;;;;;;;;;10606629;28;20050;-83
2023/04/01 06:44:55;;;;;;;1.45;0.82;;;;;;;;;;10603431;28;20032;-83
2023/04/01 06:50:15;;;;;;;0.80;0.80;;;;;;;;;;10605500;28;20036;-83
2023/04/01 06:55:37;;;;;;;1.58;1.05;;;;;;;;;;10605284;28;20054;-83
2023/04/01 07:00:41;;;;;;;1.15;1.02;;;;;;;;;;10598322;28;20020;-83
2023/04/01 07:05:47;;;;;;;1.10;0.80;;;;;;;;;;10572750;28;20028;-84
2023/04/01 07:10:53;;;;;;;;;;;;;;;;;;10575415;28;20474;-82
2023/04/01 07:16:19;;;;;;;2.50;1.10;;;;;;;;;;10562996;28;20006;-82
2023/04/01 07:21:45;;;;;;;1.40;1.00;;;;;;;;;;10564727;28;20039;-82
2023/04/01 07:26:47;;;;;;;2.13;1.80;;;;;;;;;;10562047;28;20028;-82
2023/04/01 07:32:07;;;;;;;3.90;1.70;;;;;;;;;;10562485;28;20071;-82
2023/04/01 07:37:17;;;;;;;1.83;1.40;;;;;;;;;;10562011;28;20028;-82
2023/04/01 07:42:21;;;;;;;1.50;0.90;;;;;;;;;;10551319;28;20126;-82
2023/04/01 07:47:40;;;;;;;1.92;1.38;;;;;;;;;;10550651;28;20085;-82
2023/04/01 07:52:47;;;;;;;4.00;2.17;;;;;;;;;;10550986;28;20043;-82
2023/04/01 07:58:04;;;;;;;3.35;2.05;;;;;;;;;;10555915;28;20095;-82
2023/04/01 08:03:18;;;;;;;2.75;1.50;;;;;;;;;;10553224;28;20027;-83
2023/04/01 08:08:38;;;;;;;3.83;2.53;;;;;;;;;;10552940;28;20378;-82
2023/04/01 08:13:42;;;;;;;24.50;21.08;;;;;;;;;;10552610;28;20354;-83
2023/04/01 08:19:06;;;;;;;2.78;1.90;;;;;;;;;;10553391;28;20028;-81
2023/04/01 08:29:56;;;;;;;3.97;2.00;;;;;;;;;;10414651;28;20034;-84
2023/04/01 08:35:16;;;;;;;2.30;1.77;;;;;;;;;;10531652;28;20127;-82
2023/04/01 08:40:39;;;;;;;2.35;1.63;;;;;;;;;;10555262;28;20035;-83
2023/04/01 08:45:50;;;;;;;3.03;2.15;;;;;;;;;;10558879;28;20016;-83
2023/04/01 08:51:11;;;;;;;3.42;2.17;;;;;;;;;;10558557;28;20043;-81
2023/04/01 08:56:41;;;;;;;3.47;1.63;;;;;;;;;;10559772;28;20169;-82
2023/04/01 09:02:04;;;;;;;2.25;1.50;;;;;;;;;;10548722;28;20036;-81
2023/04/01 09:07:05;;;;;;;2.78;1.90;;;;;;;;;;10558761;28;20020;-82
2023/04/01 09:12:25;;;;;;;2.80;2.30;;;;;;;;;;10562525;28;20051;-82
2023/04/01 09:17:42;;;;;;;3.25;2.28;;;;;;;;;;10563760;28;20543;-82
2023/04/01 09:22:53;;;;;;;4.00;3.03;;;;;;;;;;10562684;28;20057;-82
2023/04/01 09:28:18;;;;;;;3.38;2.75;;;;;;;;;;10560213;28;20092;-82
2023/04/01 09:33:43;;;;;;;4.32;3.10;;;;;;;;;;10560720;28;20031;-84
2023/04/01 09:38:55;;;;;;;3.67;2.60;;;;;;;;;;10560950;28;20035;-85
2023/04/01 09:43:56;;;;;;;4.55;3.67;;;;;;;;;;10563381;28;20026;-84
2023/04/01 09:48:57;;;;;;;;;;;;;;;;;;10564801;28;20066;-85
2023/04/01 09:54:02;;;;;;;3.20;2.90;;;;;;;;;;10564768;28;19957;-84
2023/04/01 09:59:06;;;;;;;3.28;2.88;;;;;;;;;;10564622;28;20031;-85
2023/04/01 10:04:26;;;;;;;4.22;3.00;;;;;;;;;;10564411;28;20017;-83
2023/04/01 10:09:46;;;;;;;3.50;3.20;;;;;;;;;;10569883;28;20032;-83
2023/04/01 10:15:10;;;;;;;5.93;5.32;;;;;;;;;;10567798;28;20397;-84
2023/04/01 10:20:30;;;;;;;3.50;3.20;;;;;;;;;;10573012;28;20016;-83
2023/04/01 10:25:55;;;;;;;5.88;5.28;;;;;;;;;;10583940;28;20035;-84
2023/04/01 10:31:03;;;;;;;3.15;2.03;;;;;;;;;;10561408;28;20055;-84
2023/04/01 10:36:18;;;;;;;3.33;2.92;;;;;;;;;;10558293;28;20104;-84
2023/04/01 10:41:41;;;;;;;2.97;2.58;;;;;;;;;;10563188;28;20093;-83
2023/04/01 10:46:54;;;;;;;3.22;2.17;;;;;;;;;;10561939;28;20111;-83
2023/04/01 10:52:10;;;;;;;2.10;1.80;;;;;;;;;;10559570;28;20035;-84
2023/04/01 10:57:21;;;;;;;5.00;2.85;;;;;;;;;;10564395;28;20028;-84
2023/04/01 11:02:47;;;;;;;2.53;1.98;;;;;;;;;;10565691;28;20020;-82
2023/04/01 11:08:07;;;;;;;2.92;1.95;;;;;;;;;;10566289;28;20092;-80
2023/04/01 11:13:14;;;;;;;1.80;1.30;;;;;;;;;;10564976;28;20027;-81
2023/04/01 11:18:32;;;;;;;3.80;2.95;;;;;;;;;;10558718;28;20028;-81
2023/04/01 11:23:33;;;;;;;2.85;1.50;;;;;;;;;;10556382;28;20167;-81
2023/04/01 11:28:39;;;;;;;2.25;1.80;;;;;;;;;;10552206;28;20025;-80
2023/04/01 11:33:51;;;;;;;3.65;2.00;;;;;;;;;;10560552;28;20060;-83
2023/04/01 11:38:55;;;;;;;2.97;1.63;;;;;;;;;;10551458;28;20081;-83
2023/04/01 11:44:16;;;;;;;2.13;1.60;;;;;;;;;;10550275;28;20028;-83
2023/04/01 11:49:34;;;;;;;2.72;2.00;;;;;;;;;;10551452;28;20469;-82
2023/04/01 11:54:53;;;;;;;2.40;1.55;;;;;;;;;;10548570;28;20384;-82
2023/04/01 12:00:02;;;;;;;2.20;1.90;;;;;;;;;;10551906;28;20388;-84
2023/04/01 12:05:22;;;;;;;4.38;2.60;;;;;;;;;;10547688;28;20040;-85
2023/04/01 12:10:42;;;;;;;2.85;1.92;;;;;;;;;;10546913;28;20040;-85
2023/04/01 12:16:04;;;;;;;2.53;1.70;;;;;;;;;;10574015;28;20054;-85
2023/04/01 12:21:18;;;;;;;5.07;2.35;;;;;;;;;;10589703;28;20008;-85
2023/04/01 12:26:21;;;;;;;3.50;2.70;;;;;;;;;;10551247;28;20032;-86
2023/04/01 12:31:37;;;;;;;3.78;2.53;;;;;;;;;;10551247;28;20102;-85
2023/04/01 12:37:04;;;;;;;3.22;2.10;;;;;;;;;;10552348;28;20565;-85
2023/04/01 12:42:31;;;;;;;2.92;2.30;;;;;;;;;;10549341;28;20016;-83
2023/04/01 12:47:52;;;;;;;2.35;1.70;;;;;;;;;;10558443;28;20067;-83
2023/04/01 12:53:19;;;;;;;3.00;2.50;;;;;;;;;;10563350;28;20510;-83
2023/04/01 12:58:40;;;;;;;3.50;3.00;;;;;;;;;;10564072;28;20066;-83
2023/04/01 13:04:00;;;;;;;3.53;3.17;;;;;;;;;;10568255;28;20504;-83
2023/04/01 13:09:07;;;;;;;3.30;2.43;;;;;;;;;;10566107;28;20023;-83
2023/04/01 13:14:29;;;;;;;3.00;1.98;;;;;;;;;;10566290;28;20032;-83
2023/04/01 13:19:42;;;;;;;3.78;2.25;;;;;;;;;;10572309;28;20044;-83
2023/04/01 13:24:56;;;;;;;2.10;1.60;;;;;;;;;;10571459;28;20430;-83
2023/04/01 13:30:17;;;;;;;2.30;1.95;;;;;;;;;;10576483;28;20030;-83
2023/04/01 13:35:33;;;;;;;3.17;2.27;;;;;;;;;;10571407;28;20382;-83
2023/04/01 13:40:44;;;;;;;3.15;1.98;;;;;;;;;;10572832;28;20282;-83
2023/04/01 13:46:03;;;;;;;2.30;1.90;;;;;;;;;;10574641;28;20017;-83
2023/04/01 13:51:13;;;;;;;2.33;1.85;;;;;;;;;;10572625;28;20051;-83
2023/04/01 13:56:33;;;;;;;2.40;1.80;;;;;;;;;;10572276;28;20032;-83
2023/04/01 14:01:34;;;;;;;3.53;2.70;;;;;;;;;;10573371;28;20054;-84
2023/04/01 14:06:35;;;;;;;;;;;;;;;;;;10576950;28;20077;-83
2023/04/01 14:11:45;;;;;;;3.47;2.60;;;;;;;;;;10580963;28;19975;-83
2023/04/01 14:16:50;;;;;;;3.00;2.08;;;;;;;;;;10591711;28;20040;-83
2023/04/01 14:22:10;;;;;;;2.13;1.83;;;;;;;;;;10594348;28;20040;-83
2023/04/01 14:27:35;;;;;;;4.45;3.30;;;;;;;;;;10576182;28;20035;-83
2023/04/01 14:32:55;;;;;;;2.65;2.05;;;;;;;;;;10575577;28;20028;-84
2023/04/01 14:38:12;;;;;;;3.03;2.15;;;;;;;;;;10568620;28;20035;-84
2023/04/01 14:43:13;;;;;;;4.07;3.30;;;;;;;;;;10571371;28;20066;-83
2023/04/01 14:48:14;;;;;;;;;;;;;;;;;;10570849;28;20032;-83
2023/04/01 14:53:29;;;;;;;2.50;1.73;;;;;;;;;;10568979;28;19912;-84
2023/04/01 14:59:05;;;;;;;2.88;2.58;;;;;;;;;;10571480;28;20074;-84
2023/04/01 15:04:26;;;;;;;3.28;2.78;;;;;;;;;;10558226;28;20119;-84
2023/04/01 15:09:46;;;;;;;3.40;2.88;;;;;;;;;;10578267;28;20050;-84
2023/04/01 15:14:47;;;;;;;5.25;4.20;;;;;;;;;;10576424;28;20032;-84
2023/04/01 15:19:57;;;;;;;4.00;3.20;;;;;;;;;;10573552;28;20028;-84
2023/04/01 15:25:17;;;;;;;6.30;5.10;;;;;;;;;;10573082;28;20020;-84
2023/04/01 15:30:24;;;;;;;4.78;4.30;;;;;;;;;;10572906;28;20390;-82
2023/04/01 15:35:56;;;;;;;4.07;3.20;;;;;;;;;;10564319;28;20446;-83
2023/04/01 15:41:31;;;;;;;6.07;5.47;;;;;;;;;;10472486;28;20056;-83
2023/04/01 15:46:46;;;;;;;2.90;2.55;;;;;;;;;;10558539;28;20040;-83
2023/04/01 15:52:07;;;;;;;4.70;4.07;;;;;;;;;;10558760;28;20082;-83
2023/04/01 15:57:10;;;;;;;;;;;;;;;;;;10560299;28;20044;-83
2023/04/01 16:02:20;;;;;;;3.35;2.47;;;;;;;;;;10572497;28;19938;-84
2023/04/01 16:07:42;;;;;;;2.95;2.20;;;;;;;;;;10574115;28;20086;-83
2023/04/01 16:13:11;;;;;;;3.80;3.22;;;;;;;;;;10457858;28;20035;-83
2023/04/01 16:18:24;;;;;;;4.00;2.80;;;;;;;;;;10570973;28;20024;-83
2023/04/01 16:23:28;;;;;;;2.20;1.65;;;;;;;;;;10569367;28;20027;-83
2023/04/01 16:28:49;;;;;;;2.50;1.80;;;;;;;;;;10568389;28;20032;-83
2023/04/01 16:33:52;;;;;;;2.20;1.88;;;;;;;;;;10569161;28;20028;-83
2023/04/01 16:39:23;;;;;;;2.40;2.10;;;;;;;;;;10568224;28;20056;-83
2023/04/01 16:44:29;;;;;;;2.35;2.03;;;;;;;;;;10561448;28;20443;-86
2023/04/01 16:49:49;;;;;;;3.20;2.47;;;;;;;;;;10551825;28;20036;-86
2023/04/01 16:54:56;;;;;;;2.00;1.77;;;;;;;;;;10550114;28;20028;-86
2023/04/01 17:00:18;;;;;;;2.78;2.08;;;;;;;;;;10549044;28;20031;-85
2023/04/01 17:05:22;;;;;;;1.90;1.70;;;;;;;;;;10550325;28;20024;-85
2023/04/01 17:10:47;;;;;;;2.30;1.80;;;;;;;;;;10551456;28;20039;-85
2023/04/01 17:15:48;;;;;;;1.75;1.33;;;;;;;;;;10550763;28;20118;-85
2023/04/01 17:21:15;;;;;;;1.70;1.33;;;;;;;;;;10553941;28;20031;-85
2023/04/01 17:26:21;;;;;;;2.13;1.58;;;;;;;;;;10547464;28;20042;-85
2023/04/01 17:31:41;;;;;;;1.77;1.40;;;;;;;;;;10551024;28;20089;-85
2023/04/01 17:36:43;;;;;;;1.60;1.23;;;;;;;;;;10550110;28;20024;-86
2023/04/01 17:41:52;;;;;;;1.35;1.20;;;;;;;;;;10550301;28;20032;-86
2023/04/01 17:47:07;;;;;;;1.77;1.55;;;;;;;;;;10550247;28;20027;-86
2023/04/01 17:52:23;;;;;;;1.00;0.90;;;;;;;;;;10546818;28;20125;-85
2023/04/01 17:57:24;;;;;;;1.60;1.20;;;;;;;;;;10546905;28;20070;-86
2023/04/01 18:02:49;;;;;;;1.33;1.10;;;;;;;;;;10566697;22;20105;-81
2023/04/01 18:08:11;;;;;;;2.17;1.98;;;;;;;;;;10488435;28;20111;-81
2023/04/01 18:13:20;;;;;;;2.17;1.90;;;;;;;;;;10500120;28;20031;-79
2023/04/01 18:18:40;;;;;;;1.73;1.38;;;;;;;;;;10528341;28;20024;-80
2023/04/01 18:23:46;;;;;;;2.50;2.30;;;;;;;;;;10527846;28;20027;-80
2023/04/01 18:28:57;;;;;;;2.97;2.38;;;;;;;;;;10545341;28;20044;-80
2023/04/01 18:34:12;;;;;;;4.03;2.88;;;;;;;;;;10525784;28;20024;-80
2023/04/01 18:39:31;;;;;;;2.67;2.45;;;;;;;;;;10544472;28;20070;-79
2023/04/01 18:44:43;;;;;;;3.00;2.25;;;;;;;;;;10526265;28;20040;-79
2023/04/01 18:50:20;;;;;;;2.50;2.28;;;;;;;;;;10525986;28;20023;-79
2023/04/01 18:55:25;;;;;;;2.45;1.63;;;;;;;;;;10428518;28;20028;-79
2023/04/01 19:00:28;;;;;;;4.20;1.70;;;;;;;;;;10533636;28;20024;-79
2023/04/01 19:05:34;;;;;;;2.03;1.58;;;;;;;;;;10533627;28;20058;-80
2023/04/01 19:10:46;;;;;;;1.88;1.42;;;;;;;;;;10534400;28;20056;-80
2023/04/01 19:15:53;;;;;;;2.22;1.67;;;;;;;;;;10552971;28;20031;-81
